sensor_id;sensor_type;location;lat;lon;timestamp;pressure;altitude;pressure_sealevel;temperature;humidity
75447;BME280;64024;55.820;37.574;2023-05-10T00:01:07;99838.06;;;20.23;27.81
75447;BME280;64024;55.820;37.574;2023-05-10T00:03:33;99829.97;;;20.23;28.12
75447;BME280;64024;55.820;37.574;2023-05-10T00:05:58;99826.22;;;20.24;28.08
75447;BME280;64024;55.820;37.574;2023-05-10T00:08:24;99829.72;;;20.25;28.03
75447;BME280;64024;55.820;37.574;2023-05-10T00:10:50;99824.06;;;20.26;28.13
75447;BME280;64024;55.820;37.574;2023-05-10T00:13:16;99832.97;;;20.27;27.94
75447;BME280;64024;55.820;37.574;2023-05-10T00:15:41;99822.97;;;20.27;28.08
75447;BME280;64024;55.820;37.574;2023-05-10T00:18:07;99826.47;;;20.28;28.44
75447;BME280;64024;55.820;37.574;2023-05-10T00:20:33;99826.25;;;20.29;28.40
75447;BME280;64024;55.820;37.574;2023-05-10T00:22:58;99826.25;;;20.29;28.35
75447;BME280;64024;55.820;37.574;2023-05-10T00:25:24;99829.75;;;20.30;28.35
75447;BME280;64024;55.820;37.574;2023-05-10T00:27:50;99820.03;;;20.29;28.43
75447;BME280;64024;55.820;37.574;2023-05-10T00:30:15;99817.88;;;20.31;28.38
75447;BME280;64024;55.820;37.574;2023-05-10T00:32:41;99821.66;;;20.30;28.54
75447;BME280;64024;55.820;37.574;2023-05-10T00:35:08;99817.88;;;20.31;28.48
75447;BME280;64024;55.820;37.574;2023-05-10T00:37:35;99824.09;;;20.31;28.62
75447;BME280;64024;55.820;37.574;2023-05-10T00:40:00;99823.28;;;20.31;28.48
75447;BME280;64024;55.820;37.574;2023-05-10T00:42:26;99828.69;;;20.31;28.55
75447;BME280;64024;55.820;37.574;2023-05-10T00:44:52;99827.59;;;20.32;28.67
75447;BME280;64024;55.820;37.574;2023-05-10T00:47:17;99831.38;;;20.31;28.58
75447;BME280;64024;55.820;37.574;2023-05-10T00:49:43;99835.69;;;20.32;28.80
75447;BME280;64024;55.820;37.574;2023-05-10T00:52:10;99833.00;;;20.32;28.60
75447;BME280;64024;55.820;37.574;2023-05-10T00:54:36;99826.78;;;20.31;28.69
75447;BME280;64024;55.820;37.574;2023-05-10T00:57:02;99840.28;;;20.31;28.67
75447;BME280;64024;55.820;37.574;2023-05-10T00:59:28;99829.75;;;20.30;28.88
75447;BME280;64024;55.820;37.574;2023-05-10T01:01:54;99826.78;;;20.31;28.70
75447;BME280;64024;55.820;37.574;2023-05-10T01:04:20;99828.69;;;20.31;28.80
75447;BME280;64024;55.820;37.574;2023-05-10T01:06:52;99826.78;;;20.31;28.73
75447;BME280;64024;55.820;37.574;2023-05-10T01:09:19;99829.50;;;20.31;28.69
75447;BME280;64024;55.820;37.574;2023-05-10T01:11:44;99827.88;;;20.30;28.68
75447;BME280;64024;55.820;37.574;2023-05-10T01:14:10;99823.28;;;20.31;28.53
75447;BME280;64024;55.820;37.574;2023-05-10T01:16:38;99820.84;;;20.29;29.09
75447;BME280;64024;55.820;37.574;2023-05-10T01:19:14;99824.34;;;20.30;29.02
75447;BME280;64024;55.820;37.574;2023-05-10T01:22:02;99825.75;;;20.32;29.01
75447;BME280;64024;55.820;37.574;2023-05-10T01:27:17;99822.47;;;20.30;28.92
75447;BME280;64024;55.820;37.574;2023-05-10T01:35:06;99831.88;;;20.28;29.18
75447;BME280;64024;55.820;37.574;2023-05-10T01:43:12;99828.38;;;20.27;29.17
75447;BME280;64024;55.820;37.574;2023-05-10T01:45:56;99823.25;;;20.26;29.05
75447;BME280;64024;55.820;37.574;2023-05-10T01:48:24;99823.25;;;20.26;28.89
75447;BME280;64024;55.820;37.574;2023-05-10T01:50:53;99826.22;;;20.24;29.09
75447;BME280;64024;55.820;37.574;2023-05-10T01:53:21;99820.81;;;20.24;29.25
75447;BME280;64024;55.820;37.574;2023-05-10T01:55:50;99817.31;;;20.24;29.13
75447;BME280;64024;55.820;37.574;2023-05-10T01:58:23;99820.00;;;20.24;29.17
75447;BME280;64024;55.820;37.574;2023-05-10T02:00:53;99814.84;;;20.22;29.02
75447;BME280;64024;55.820;37.574;2023-05-10T02:03:22;99814.84;;;20.22;29.23
75447;BME280;64024;55.820;37.574;2023-05-10T02:05:49;99814.84;;;20.22;28.99
75447;BME280;64024;55.820;37.574;2023-05-10T02:08:15;99814.09;;;20.32;29.25
75447;BME280;64024;55.820;37.574;2023-05-10T02:10:45;99812.19;;;20.27;29.32
75447;BME280;64024;55.820;37.574;2023-05-10T02:13:13;99805.66;;;20.23;29.20
75447;BME280;64024;55.820;37.574;2023-05-10T02:15:40;99808.63;;;20.22;29.29
75447;BME280;64024;55.820;37.574;2023-05-10T02:18:07;99807.00;;;20.21;29.50
75447;BME280;64024;55.820;37.574;2023-05-10T02:20:35;99813.22;;;20.21;29.38
75447;BME280;64024;55.820;37.574;2023-05-10T02:23:02;99805.41;;;20.20;29.28
75447;BME280;64024;55.820;37.574;2023-05-10T02:25:28;99810.84;;;20.30;29.33
75447;BME280;64024;55.820;37.574;2023-05-10T02:27:56;99803.53;;;20.25;29.27
75447;BME280;64024;55.820;37.574;2023-05-10T02:30:23;99813.22;;;20.21;29.37
75447;BME280;64024;55.820;37.574;2023-05-10T02:32:50;99808.09;;;20.20;29.28
75447;BME280;64024;55.820;37.574;2023-05-10T02:35:17;99797.28;;;20.20;29.32
75447;BME280;64024;55.820;37.574;2023-05-10T02:37:43;99801.03;;;20.19;29.39
75447;BME280;64024;55.820;37.574;2023-05-10T02:40:10;99800.34;;;20.28;29.40
75447;BME280;64024;55.820;37.574;2023-05-10T02:42:38;99795.72;;;20.24;29.40
75447;BME280;64024;55.820;37.574;2023-05-10T02:45:11;99797.03;;;20.21;29.46
75447;BME280;64024;55.820;37.574;2023-05-10T02:47:37;99792.44;;;20.22;29.61
75447;BME280;64024;55.820;37.574;2023-05-10T02:50:04;99796.75;;;20.23;29.45
75447;BME280;64024;55.820;37.574;2023-05-10T02:52:39;99793.81;;;20.24;29.68
75447;BME280;64024;55.820;37.574;2023-05-10T02:55:05;99793.81;;;20.24;29.64
75447;BME280;64024;55.820;37.574;2023-05-10T02:57:40;99793.81;;;20.24;29.61
75447;BME280;64024;55.820;37.574;2023-05-10T03:00:06;99796.25;;;20.26;29.68
75447;BME280;64024;55.820;37.574;2023-05-10T03:02:32;99796.25;;;20.26;29.76
75447;BME280;64024;55.820;37.574;2023-05-10T03:04:58;99795.97;;;20.27;29.86
75447;BME280;64024;55.820;37.574;2023-05-10T03:07:23;99788.69;;;20.28;29.66
75447;BME280;64024;55.820;37.574;2023-05-10T03:09:49;99789.53;;;20.28;29.80
75447;BME280;64024;55.820;37.574;2023-05-10T03:15:13;99789.56;;;20.33;29.92
75447;BME280;64024;55.820;37.574;2023-05-10T03:17:54;99791.19;;;20.34;29.90
75447;BME280;64024;55.820;37.574;2023-05-10T03:20:36;99789.06;;;20.36;30.09
75447;BME280;64024;55.820;37.574;2023-05-10T03:25:39;99790.69;;;20.38;29.99
75447;BME280;64024;55.820;37.574;2023-05-10T03:28:05;99785.28;;;20.38;30.06
75447;BME280;64024;55.820;37.574;2023-05-10T03:30:32;99780.69;;;20.38;30.19
75447;BME280;64024;55.820;37.574;2023-05-10T03:33:04;99788.28;;;20.41;29.64
75447;BME280;64024;55.820;37.574;2023-05-10T03:35:31;99787.47;;;20.41;29.79
75447;BME280;64024;55.820;37.574;2023-05-10T03:37:57;99792.59;;;20.42;29.91
75447;BME280;64024;55.820;37.574;2023-05-10T03:40:23;99793.41;;;20.43;30.15
75447;BME280;64024;55.820;37.574;2023-05-10T03:42:49;99790.44;;;20.44;30.08
75447;BME280;64024;55.820;37.574;2023-05-10T03:45:14;99784.00;;;20.45;30.16
75447;BME280;64024;55.820;37.574;2023-05-10T03:47:40;99784.53;;;20.47;29.87
75447;BME280;64024;55.820;37.574;2023-05-10T03:50:06;99781.63;;;20.49;30.03
75447;BME280;64024;55.820;37.574;2023-05-10T03:52:32;99785.94;;;20.50;29.64
75447;BME280;64024;55.820;37.574;2023-05-10T03:54:58;99784.84;;;20.51;29.86
75447;BME280;64024;55.820;37.574;2023-05-10T03:57:23;99788.13;;;20.53;29.89
75447;BME280;64024;55.820;37.574;2023-05-10T03:59:49;99790.56;;;20.54;29.86
75447;BME280;64024;55.820;37.574;2023-05-10T04:02:15;99786.78;;;20.55;29.92
75447;BME280;64024;55.820;37.574;2023-05-10T04:04:41;99786.53;;;20.57;29.77
75447;BME280;64024;55.820;37.574;2023-05-10T04:07:07;99780.06;;;20.58;29.81
75447;BME280;64024;55.820;37.574;2023-05-10T04:09:32;99781.66;;;20.59;29.79
75447;BME280;64024;55.820;37.574;2023-05-10T04:11:59;99781.41;;;20.60;29.75
75447;BME280;64024;55.820;37.574;2023-05-10T04:14:26;99783.84;;;20.62;29.83
75447;BME280;64024;55.820;37.574;2023-05-10T04:16:51;99777.38;;;20.63;29.73
75447;BME280;64024;55.820;37.574;2023-05-10T04:19:17;99787.91;;;20.65;29.79
75447;BME280;64024;55.820;37.574;2023-05-10T04:21:42;99783.31;;;20.65;29.72
75447;BME280;64024;55.820;37.574;2023-05-10T04:24:08;99782.25;;;20.66;29.64
75447;BME280;64024;55.820;37.574;2023-05-10T04:26:34;99773.88;;;20.68;29.72
75447;BME280;64024;55.820;37.574;2023-05-10T04:29:00;99780.66;;;20.70;29.56
75447;BME280;64024;55.820;37.574;2023-05-10T04:31:26;99775.00;;;20.72;29.71
75447;BME280;64024;55.820;37.574;2023-05-10T04:33:53;99775.56;;;20.74;29.83
75447;BME280;64024;55.820;37.574;2023-05-10T04:36:18;99778.78;;;20.76;29.57
75447;BME280;64024;55.820;37.574;2023-05-10T04:38:44;99769.63;;;20.77;29.67
75447;BME280;64024;55.820;37.574;2023-05-10T04:41:10;99777.19;;;20.80;29.33
75447;BME280;64024;55.820;37.574;2023-05-10T04:43:37;99775.06;;;20.82;29.49
75447;BME280;64024;55.820;37.574;2023-05-10T04:46:03;99771.81;;;20.85;29.47
75447;BME280;64024;55.820;37.574;2023-05-10T04:48:30;99773.19;;;20.88;29.18
75447;BME280;64024;55.820;37.574;2023-05-10T04:50:55;99766.47;;;20.90;29.15
75447;BME280;64024;55.820;37.574;2023-05-10T04:53:22;99759.97;;;20.91;29.35
75447;BME280;64024;55.820;37.574;2023-05-10T04:55:47;99762.13;;;20.94;29.32
75447;BME280;64024;55.820;37.574;2023-05-10T04:58:14;99762.69;;;20.96;29.09
75447;BME280;64024;55.820;37.574;2023-05-10T05:00:40;99757.81;;;20.98;29.16
75447;BME280;64024;55.820;37.574;2023-05-10T05:03:06;99757.31;;;21.01;29.06
75447;BME280;64024;55.820;37.574;2023-05-10T05:05:31;99754.34;;;21.03;28.91
75447;BME280;64024;55.820;37.574;2023-05-10T05:07:57;99755.44;;;21.07;28.96
75447;BME280;64024;55.820;37.574;2023-05-10T05:10:23;99747.06;;;21.08;28.74
75447;BME280;64024;55.820;37.574;2023-05-10T05:12:48;99750.31;;;21.10;28.74
75447;BME280;64024;55.820;37.574;2023-05-10T05:15:14;99754.09;;;21.15;28.89
75447;BME280;64024;55.820;37.574;2023-05-10T05:17:43;99755.47;;;21.17;28.89
75447;BME280;64024;55.820;37.574;2023-05-10T05:20:09;99751.44;;;21.20;28.85
75447;BME280;64024;55.820;37.574;2023-05-10T05:22:36;99748.19;;;21.23;28.89
75447;BME280;64024;55.820;37.574;2023-05-10T05:25:02;99749.56;;;21.25;28.98
75447;BME280;64024;55.820;37.574;2023-05-10T05:27:29;99749.84;;;21.29;28.79
75447;BME280;64024;55.820;37.574;2023-05-10T05:29:55;99749.56;;;21.30;28.64
75447;BME280;64024;55.820;37.574;2023-05-10T05:32:22;99746.38;;;21.33;28.77
75447;BME280;64024;55.820;37.574;2023-05-10T05:34:49;99734.22;;;21.36;28.77
75447;BME280;64024;55.820;37.574;2023-05-10T05:37:15;99740.97;;;21.39;28.64
75447;BME280;64024;55.820;37.574;2023-05-10T05:39:42;99737.75;;;21.42;28.74
75447;BME280;64024;55.820;37.574;2023-05-10T05:42:08;99740.72;;;21.45;28.65
75447;BME280;64024;55.820;37.574;2023-05-10T05:44:34;99738.31;;;21.49;28.48
75447;BME280;64024;55.820;37.574;2023-05-10T05:47:00;99741.53;;;21.51;28.62
75447;BME280;64024;55.820;37.574;2023-05-10T05:49:26;99738.31;;;21.54;28.43
75447;BME280;64024;55.820;37.574;2023-05-10T05:51:51;99732.38;;;21.57;28.48
75447;BME280;64024;55.820;37.574;2023-05-10T05:54:17;99735.31;;;21.60;28.59
75447;BME280;64024;55.820;37.574;2023-05-10T05:56:43;99734.78;;;21.64;28.60
75447;BME280;64024;55.820;37.574;2023-05-10T05:59:10;99734.53;;;21.65;28.67
75447;BME280;64024;55.820;37.574;2023-05-10T06:01:36;99731.28;;;21.68;28.49
75447;BME280;64024;55.820;37.574;2023-05-10T06:04:01;99728.03;;;21.71;28.62
75447;BME280;64024;55.820;37.574;2023-05-10T06:06:27;99726.69;;;21.74;28.49
75447;BME280;64024;55.820;37.574;2023-05-10T06:08:53;99729.13;;;21.75;28.64
75447;BME280;64024;55.820;37.574;2023-05-10T06:11:19;99732.09;;;21.79;28.61
75447;BME280;64024;55.820;37.574;2023-05-10T06:13:46;99729.94;;;21.81;28.79
75447;BME280;64024;55.820;37.574;2023-05-10T06:16:12;99733.72;;;21.85;28.44
75447;BME280;64024;55.820;37.574;2023-05-10T06:18:38;99725.34;;;21.87;28.55
75447;BME280;64024;55.820;37.574;2023-05-10T06:21:04;99723.97;;;21.89;28.63
75447;BME280;64024;55.820;37.574;2023-05-10T06:23:30;99725.34;;;21.92;28.40
75447;BME280;64024;55.820;37.574;2023-05-10T06:25:56;99725.06;;;21.93;28.41
75447;BME280;64024;55.820;37.574;2023-05-10T06:28:22;99727.25;;;21.96;28.15
75447;BME280;64024;55.820;37.574;2023-05-10T06:30:47;99723.44;;;21.97;27.55
75447;BME280;64024;55.820;37.574;2023-05-10T06:33:13;99725.09;;;21.98;27.22
75447;BME280;64024;55.820;37.574;2023-05-10T06:35:39;99719.69;;;21.98;26.65
75447;BME280;64024;55.820;37.574;2023-05-10T06:38:04;99721.28;;;21.99;26.39
75447;BME280;64024;55.820;37.574;2023-05-10T06:40:30;99715.59;;;22.01;26.43
75447;BME280;64024;55.820;37.574;2023-05-10T06:42:56;99714.50;;;22.02;26.19
75447;BME280;64024;55.820;37.574;2023-05-10T06:45:21;99711.53;;;22.03;26.05
75447;BME280;64024;55.820;37.574;2023-05-10T06:47:47;99713.16;;;22.04;25.85
75447;BME280;64024;55.820;37.574;2023-05-10T06:50:13;99713.97;;;22.05;25.67
75447;BME280;64024;55.820;37.574;2023-05-10T06:52:39;99714.53;;;22.07;25.56
75447;BME280;64024;55.820;37.574;2023-05-10T06:55:05;99712.63;;;22.07;25.54
75447;BME280;64024;55.820;37.574;2023-05-10T06:57:31;99714.25;;;22.08;25.20
75447;BME280;64024;55.820;37.574;2023-05-10T07:00:00;99708.03;;;22.08;25.10
75447;BME280;64024;55.820;37.574;2023-05-10T07:02:26;99708.53;;;22.10;25.02
75447;BME280;64024;55.820;37.574;2023-05-10T07:04:52;99710.19;;;22.11;24.71
75447;BME280;64024;55.820;37.574;2023-05-10T07:07:18;99705.84;;;22.10;24.72
75447;BME280;64024;55.820;37.574;2023-05-10T07:09:44;99712.09;;;22.11;24.73
75447;BME280;64024;55.820;37.574;2023-05-10T07:12:10;99713.97;;;22.10;24.73
75447;BME280;64024;55.820;37.574;2023-05-10T07:14:36;99704.78;;;22.11;24.55
75447;BME280;64024;55.820;37.574;2023-05-10T07:17:01;99706.69;;;22.11;24.36
75447;BME280;64024;55.820;37.574;2023-05-10T07:19:27;99712.91;;;22.11;24.30
75447;BME280;64024;55.820;37.574;2023-05-10T07:21:54;99708.53;;;22.10;24.19
75447;BME280;64024;55.820;37.574;2023-05-10T07:24:20;99706.94;;;22.09;24.04
75447;BME280;64024;55.820;37.574;2023-05-10T07:26:46;99706.41;;;22.07;23.94
75447;BME280;64024;55.820;37.574;2023-05-10T07:29:12;99707.47;;;22.06;24.00
75447;BME280;64024;55.820;37.574;2023-05-10T07:31:37;99704.75;;;22.06;23.80
75447;BME280;64024;55.820;37.574;2023-05-10T07:34:03;99702.88;;;22.06;23.76
75447;BME280;64024;55.820;37.574;2023-05-10T07:36:28;99700.19;;;22.06;23.77
75447;BME280;64024;55.820;37.574;2023-05-10T07:38:54;99701.25;;;22.05;23.62
75447;BME280;64024;55.820;37.574;2023-05-10T07:41:20;99695.03;;;22.05;23.54
75447;BME280;64024;55.820;37.574;2023-05-10T07:43:46;99695.84;;;22.05;23.50
75447;BME280;64024;55.820;37.574;2023-05-10T07:46:12;99691.22;;;22.06;23.53
75447;BME280;64024;55.820;37.574;2023-05-10T07:48:37;99696.38;;;22.07;23.46
75447;BME280;64024;55.820;37.574;2023-05-10T07:51:03;99689.06;;;22.08;23.42
75447;BME280;64024;55.820;37.574;2023-05-10T07:53:29;99693.13;;;22.11;23.55
75447;BME280;64024;55.820;37.574;2023-05-10T07:55:57;99692.06;;;22.12;23.34
75447;BME280;64024;55.820;37.574;2023-05-10T07:58:24;99690.69;;;22.14;23.48
75447;BME280;64024;55.820;37.574;2023-05-10T08:00:50;99690.44;;;22.16;23.01
75447;BME280;64024;55.820;37.574;2023-05-10T08:03:16;99692.88;;;22.17;23.06
75447;BME280;64024;55.820;37.574;2023-05-10T08:05:41;99685.84;;;22.16;22.82
75447;BME280;64024;55.820;37.574;2023-05-10T08:08:07;99681.22;;;22.17;22.97
75447;BME280;64024;55.820;37.574;2023-05-10T08:10:33;99676.63;;;22.17;22.94
75447;BME280;64024;55.820;37.574;2023-05-10T08:12:59;99678.25;;;22.18;23.16
75447;BME280;64024;55.820;37.574;2023-05-10T08:15:25;99669.88;;;22.20;23.35
75447;BME280;64024;55.820;37.574;2023-05-10T08:17:53;99675.00;;;22.21;23.55
75447;BME280;64024;55.820;37.574;2023-05-10T08:20:19;99676.34;;;22.24;23.71
75447;BME280;64024;55.820;37.574;2023-05-10T08:22:46;99663.34;;;22.26;23.92
75447;BME280;64024;55.820;37.574;2023-05-10T08:25:11;99667.41;;;22.28;23.88
75447;BME280;64024;55.820;37.574;2023-05-10T08:27:37;99671.44;;;22.31;24.09
75447;BME280;64024;55.820;37.574;2023-05-10T08:30:03;99663.06;;;22.32;24.09
75447;BME280;64024;55.820;37.574;2023-05-10T08:32:29;99664.41;;;22.35;23.83
75447;BME280;64024;55.820;37.574;2023-05-10T08:34:55;99658.72;;;22.37;23.61
75447;BME280;64024;55.820;37.574;2023-05-10T08:37:22;99655.72;;;22.38;23.86
75447;BME280;64024;55.820;37.574;2023-05-10T08:39:48;99656.28;;;22.40;23.80
75447;BME280;64024;55.820;37.574;2023-05-10T08:42:16;99655.19;;;22.41;23.49
75447;BME280;64024;55.820;37.574;2023-05-10T08:44:47;99655.44;;;22.45;23.25
75447;BME280;64024;55.820;37.574;2023-05-10T08:47:15;99656.25;;;22.45;23.58
75447;BME280;64024;55.820;37.574;2023-05-10T08:49:43;99655.97;;;22.47;23.28
75447;BME280;64024;55.820;37.574;2023-05-10T08:52:11;99652.19;;;22.48;24.06
75447;BME280;64024;55.820;37.574;2023-05-10T08:54:38;99661.66;;;22.50;24.19
75447;BME280;64024;55.820;37.574;2023-05-10T08:57:04;99644.59;;;22.50;23.28
75447;BME280;64024;55.820;37.574;2023-05-10T08:59:31;99641.09;;;22.44;22.99
75447;BME280;64024;55.820;37.574;2023-05-10T09:01:58;99638.94;;;22.41;22.40
75447;BME280;64024;55.820;37.574;2023-05-10T09:04:25;99641.63;;;22.41;22.60
75447;BME280;64024;55.820;37.574;2023-05-10T09:06:51;99634.63;;;22.40;22.50
75447;BME280;64024;55.820;37.574;2023-05-10T09:09:18;99635.41;;;22.41;22.19
75447;BME280;64024;55.820;37.574;2023-05-10T09:11:45;99628.63;;;22.43;22.19
75447;BME280;64024;55.820;37.574;2023-05-10T09:14:12;99626.16;;;22.47;22.26
75447;BME280;64024;55.820;37.574;2023-05-10T09:16:39;99622.91;;;22.50;22.14
75447;BME280;64024;55.820;37.574;2023-05-10T09:19:05;99615.34;;;22.52;22.06
75447;BME280;64024;55.820;37.574;2023-05-10T09:21:32;99615.84;;;22.54;22.27
75447;BME280;64024;55.820;37.574;2023-05-10T09:24:03;99606.38;;;22.56;23.30
75447;BME280;64024;55.820;37.574;2023-05-10T09:26:28;99606.09;;;22.58;23.79
75447;BME280;64024;55.820;37.574;2023-05-10T09:28:56;99610.97;;;22.61;24.18
75447;BME280;64024;55.820;37.574;2023-05-10T09:31:22;99605.25;;;22.63;24.05
75447;BME280;64024;55.820;37.574;2023-05-10T09:33:51;99598.47;;;22.65;24.23
75447;BME280;64024;55.820;37.574;2023-05-10T09:36:17;99597.91;;;22.68;24.30
75447;BME280;64024;55.820;37.574;2023-05-10T09:39:01;99607.94;;;22.73;24.48
75447;BME280;64024;55.820;37.574;2023-05-10T09:41:27;99597.91;;;22.73;24.15
75447;BME280;64024;55.820;37.574;2023-05-10T09:43:56;99593.25;;;22.79;24.35
75447;BME280;64024;55.820;37.574;2023-05-10T09:46:23;99597.31;;;22.81;24.83
75447;BME280;64024;55.820;37.574;2023-05-10T09:48:49;99588.59;;;22.84;25.18
75447;BME280;64024;55.820;37.574;2023-05-10T09:51:24;99589.94;;;22.87;24.60
75447;BME280;64024;55.820;37.574;2023-05-10T09:54:14;99575.88;;;22.90;24.97
75447;BME280;64024;55.820;37.574;2023-05-10T09:56:41;99579.38;;;22.91;24.66
75447;BME280;64024;55.820;37.574;2023-05-10T09:59:12;99580.44;;;22.95;24.13
75447;BME280;64024;55.820;37.574;2023-05-10T10:01:38;99579.34;;;22.96;24.18
75447;BME280;64024;55.820;37.574;2023-05-10T10:04:09;99581.78;;;22.97;23.79
75447;BME280;64024;55.820;37.574;2023-05-10T10:06:36;99578.78;;;22.99;23.78
75447;BME280;64024;55.820;37.574;2023-05-10T10:09:02;99576.88;;;22.99;24.06
75447;BME280;64024;55.820;37.574;2023-05-10T10:11:28;99578.50;;;23.00;24.57
75447;BME280;64024;55.820;37.574;2023-05-10T10:13:54;99567.66;;;23.00;24.75
75447;BME280;64024;55.820;37.574;2023-05-10T10:16:20;99571.97;;;23.01;24.75
75447;BME280;64024;55.820;37.574;2023-05-10T10:18:47;99578.50;;;23.00;23.98
75447;BME280;64024;55.820;37.574;2023-05-10T10:21:13;99566.34;;;22.98;23.37
75447;BME280;64024;55.820;37.574;2023-05-10T10:23:40;99575.03;;;22.95;22.79
75447;BME280;64024;55.820;37.574;2023-05-10T10:26:06;99572.06;;;22.91;22.34
75447;BME280;64024;55.820;37.574;2023-05-10T10:29:00;99568.25;;;22.92;21.49
75447;BME280;64024;55.820;37.574;2023-05-10T10:31:38;99564.19;;;22.90;21.68
75447;BME280;64024;55.820;37.574;2023-05-10T10:36:40;99562.09;;;22.81;20.97
75447;BME280;64024;55.820;37.574;2023-05-10T10:39:11;99553.44;;;22.74;21.13
75447;BME280;64024;55.820;37.574;2023-05-10T10:41:52;99560.50;;;22.70;20.82
75447;BME280;64024;55.820;37.574;2023-05-10T10:52:28;99554.81;;;22.72;21.65
75447;BME280;64024;55.820;37.574;2023-05-10T10:55:00;99553.16;;;22.76;21.72
75447;BME280;64024;55.820;37.574;2023-05-10T10:57:32;99548.78;;;22.80;21.71
75447;BME280;64024;55.820;37.574;2023-05-10T11:00:25;99549.28;;;22.87;21.95
75447;BME280;64024;55.820;37.574;2023-05-10T11:07:52;99548.47;;;22.92;21.07
75447;BME280;64024;55.820;37.574;2023-05-10T11:10:22;99535.72;;;22.92;21.11
75447;BME280;64024;55.820;37.574;2023-05-10T11:13:05;99531.91;;;22.93;21.55
75447;BME280;64024;55.820;37.574;2023-05-10T11:15:33;99536.53;;;22.93;22.11
75447;BME280;64024;55.820;37.574;2023-05-10T11:18:00;99534.38;;;22.95;22.50
75447;BME280;64024;55.820;37.574;2023-05-10T11:20:41;99521.34;;;22.97;22.51
75447;BME280;64024;55.820;37.574;2023-05-10T11:23:16;99530.28;;;22.97;22.20
75447;BME280;64024;55.820;37.574;2023-05-10T11:25:44;99515.09;;;22.96;22.47
75447;BME280;64024;55.820;37.574;2023-05-10T11:28:11;99524.03;;;22.97;22.56
75447;BME280;64024;55.820;37.574;2023-05-10T11:30:39;99522.13;;;22.97;22.88
75447;BME280;64024;55.820;37.574;2023-05-10T11:33:06;99518.34;;;22.98;23.16
75447;BME280;64024;55.820;37.574;2023-05-10T11:35:38;99522.69;;;22.99;23.73
75447;BME280;64024;55.820;37.574;2023-05-10T11:38:08;99513.44;;;23.00;23.53
75447;BME280;64024;55.820;37.574;2023-05-10T11:40:37;99511.53;;;23.01;23.81
75447;BME280;64024;55.820;37.574;2023-05-10T11:43:04;99510.47;;;23.02;24.19
75447;BME280;64024;55.820;37.574;2023-05-10T11:45:34;99514.00;;;23.02;24.41
75447;BME280;64024;55.820;37.574;2023-05-10T11:48:00;99510.97;;;23.04;24.15
75447;BME280;64024;55.820;37.574;2023-05-10T11:50:27;99499.84;;;23.05;23.89
75447;BME280;64024;55.820;37.574;2023-05-10T11:52:54;99500.38;;;23.07;23.09
75447;BME280;64024;55.820;37.574;2023-05-10T11:55:20;99502.81;;;23.09;22.93
75447;BME280;64024;55.820;37.574;2023-05-10T11:57:46;99499.03;;;23.10;22.82
75447;BME280;64024;55.820;37.574;2023-05-10T12:00:13;99493.59;;;23.10;22.19
75447;BME280;64024;55.820;37.574;2023-05-10T12:02:39;99488.97;;;23.11;22.02
75447;BME280;64024;55.820;37.574;2023-05-10T12:05:06;99496.00;;;23.12;21.71
75447;BME280;64024;55.820;37.574;2023-05-10T12:07:32;99487.88;;;23.12;21.76
75447;BME280;64024;55.820;37.574;2023-05-10T12:10:10;99495.44;;;23.15;21.29
75447;BME280;64024;55.820;37.574;2023-05-10T12:15:11;99492.75;;;23.10;21.25
75447;BME280;64024;55.820;37.574;2023-05-10T12:17:39;99489.84;;;23.06;20.92
75447;BME280;64024;55.820;37.574;2023-05-10T12:20:24;99495.25;;;23.06;20.71
75447;BME280;64024;55.820;37.574;2023-05-10T12:22:55;99488.78;;;23.02;21.27
75447;BME280;64024;55.820;37.574;2023-05-10T12:25:22;99474.41;;;23.01;20.88
75447;BME280;64024;55.820;37.574;2023-05-10T12:27:54;99482.03;;;22.99;21.12
75447;BME280;64024;55.820;37.574;2023-05-10T12:30:25;99484.47;;;22.96;20.93
75447;BME280;64024;55.820;37.574;2023-05-10T12:32:50;99476.09;;;22.92;20.76
75447;BME280;64024;55.820;37.574;2023-05-10T12:35:17;99478.31;;;22.90;20.99
75447;BME280;64024;55.820;37.574;2023-05-10T12:37:46;99473.94;;;22.89;20.83
75447;BME280;64024;55.820;37.574;2023-05-10T12:40:12;99466.09;;;22.88;20.86
75447;BME280;64024;55.820;37.574;2023-05-10T12:42:38;99476.63;;;22.89;21.02
75447;BME280;64024;55.820;37.574;2023-05-10T12:45:05;99473.94;;;22.89;21.14
75447;BME280;64024;55.820;37.574;2023-05-10T12:47:32;99472.06;;;22.90;21.24
75447;BME280;64024;55.820;37.574;2023-05-10T12:49:59;99472.06;;;22.90;21.31
75447;BME280;64024;55.820;37.574;2023-05-10T12:52:25;99474.41;;;23.01;21.26
75447;BME280;64024;55.820;37.574;2023-05-10T12:54:51;99475.00;;;22.98;21.20
75447;BME280;64024;55.820;37.574;2023-05-10T12:57:18;99469.03;;;22.96;21.68
75447;BME280;64024;55.820;37.574;2023-05-10T12:59:43;99471.72;;;22.96;22.14
75447;BME280;64024;55.820;37.574;2023-05-10T13:02:09;99467.41;;;22.95;21.70
75447;BME280;64024;55.820;37.574;2023-05-10T13:04:35;99463.09;;;22.94;21.57
75447;BME280;64024;55.820;37.574;2023-05-10T13:07:07;99467.97;;;22.92;21.82
75447;BME280;64024;55.820;37.574;2023-05-10T13:09:32;99461.75;;;22.92;22.52
75447;BME280;64024;55.820;37.574;2023-05-10T13:11:58;99453.63;;;22.92;22.63
75447;BME280;64024;55.820;37.574;2023-05-10T13:14:24;99457.13;;;22.92;23.25
75447;BME280;64024;55.820;37.574;2023-05-10T13:16:49;99460.66;;;22.93;23.01
75447;BME280;64024;55.820;37.574;2023-05-10T13:19:15;99454.44;;;22.92;23.26
75447;BME280;64024;55.820;37.574;2023-05-10T13:21:41;99461.47;;;22.93;23.17
75447;BME280;64024;55.820;37.574;2023-05-10T13:24:07;99457.13;;;22.92;23.58
75447;BME280;64024;55.820;37.574;2023-05-10T13:26:34;99462.56;;;22.92;23.49
75447;BME280;64024;55.820;37.574;2023-05-10T13:28:59;99461.75;;;22.92;23.29